OBBI Airport Information

Runway Information
Runway 12R Length 8302 ft width 148 ft Elevation 7 ft Threshold 1000 ft Heading 123
Runway 30L Length 8302 ft Width 148 ft Elevation 6 ft Threshold 395 ft Heading 303
Runway 12L Length 12979 ft width 197 ft Elevation 6 ft Threshold 1000 ft Heading 123
Runway 30R Length 12979 ft Width 197 ft Elevation 6 ft Threshold 1000 ft Heading 303
Airport Frequencies
Type APP Name APP Frequency 127.85 MHZ
Type ATIS Name ATIS Frequency 127.2 MHZ
Type GND Name GND Frequency 121.675 MHZ
Type OPS Name ATOC Frequency 32.175 MHZ
Type TWR Name TWR Frequency 118.5 MHZ
Airport Navaids
Type VOR-DME Name Bahrain Frequency 115300 KHZ
Type NDB Name Bahrain Frequency 395 KHZ
Airport Weather Information & NOTAM
ADDS - METARS form results

(1728 UTC 31 January 2023)
Data provider http://aviationweather.gov/metar/data/
 
METAR text: OBBI 311700Z 13015KT CAVOK 19/15 Q1013 NOSIG
Conditions at: OBBI (BAHRAIN INTL ARP, BH) observed 1700 UTC 31 January 2023
Temperature: 19.0°C (66°F)
Dewpoint: 15.0°C (59°F) [RH = 78%]
Pressure (altimeter): 29.91 inches Hg (1013.0 mb)
Winds: from the SE (130 degrees) at 17 MPH (15 knots; 7.7 m/s)
Visibility: 6 or more miles (10+ km)
Ceiling: ceiling and visibility are OK
Clouds: unknown
Weather: no significant weather observed at this time

METAR text: OBBI 311630Z 13016KT CAVOK 19/15 Q1012 NOSIG
Conditions at: OBBI (BAHRAIN INTL ARP, BH) observed 1630 UTC 31 January 2023
Temperature: 19.0°C (66°F)
Dewpoint: 15.0°C (59°F) [RH = 78%]
Pressure (altimeter): 29.88 inches Hg (1012.0 mb)
Winds: from the SE (130 degrees) at 18 MPH (16 knots; 8.2 m/s)
Visibility: 6 or more miles (10+ km)
Ceiling: ceiling and visibility are OK
Clouds: unknown
Weather: no significant weather observed at this time

Forecast for: OBBI (BAHRAIN INTL ARP, BH)
Text: TAF OBBI 311700Z 3118/0200 15017G27KT 9000 NSC
Forecast period: 1800 UTC 31 January 2023 to 0300 UTC 01 February 2023
Forecast type: FROM: standard forecast or significant change
Winds: from the SSE (150 degrees) at 20 MPH (17 knots; 8.7 m/s)
gusting to 31 MPH (27 knots; 13.9 m/s)
Visibility: 6 miles (9 km)
Ceiling: unknown
Clouds: missing
Weather: no significant weather forecast for this period
Text: BECMG 0103/0105 17012KT
Forecast period: 0300 to 1200 UTC 01 February 2023
Forecast type: BECOMING: Conditions expected to become as follows by 0500 UTC 01 February 2023
Winds: from the S (170 degrees) at 14 MPH (12 knots; 6.2 m/s)
Visibility: 6 miles (9 km)
Ceiling: unknown
Clouds: missing
Weather: no significant weather forecast for this period
Text: BECMG 0112/0114 34010KT
Forecast period: 1200 UTC 01 February 2023 to 0000 UTC 02 February 2023
Forecast type: BECOMING: Conditions expected to become as follows by 1400 UTC 01 February 2023
Winds: from the NNW (340 degrees) at 12 MPH (10 knots; 5.1 m/s)
Visibility: 6 miles (9 km)
Ceiling: unknown
Clouds: missing
Weather: no significant weather forecast for this period